createdAt,value
2023-02-27T00:02:22.228Z,-0.72
2023-02-27T00:05:03.240Z,-0.74
2023-02-27T00:07:39.162Z,-0.73
2023-02-27T00:10:22.935Z,-0.69
2023-02-27T00:12:57.749Z,-0.73
2023-02-27T00:15:32.553Z,-0.74
2023-02-27T00:18:08.103Z,-0.76
2023-02-27T00:20:42.971Z,-0.79
2023-02-27T00:23:22.767Z,-0.79
2023-02-27T00:26:01.853Z,-0.79
2023-02-27T00:28:40.753Z,-0.79
2023-02-27T00:31:13.607Z,-0.76
2023-02-27T00:33:45.569Z,-0.78
2023-02-27T00:36:22.102Z,-0.79
2023-02-27T00:38:59.324Z,-0.79
2023-02-27T00:41:32.011Z,-0.82
2023-02-27T00:44:05.927Z,-0.80
2023-02-27T00:46:43.935Z,-0.82
2023-02-27T00:49:25.729Z,-0.87
2023-02-27T00:52:08.750Z,-0.94
2023-02-27T00:54:49.292Z,-0.95
2023-02-27T00:57:24.145Z,-0.95
2023-02-27T01:00:05.307Z,-0.93
2023-02-27T01:02:45.064Z,-0.93
2023-02-27T01:05:17.815Z,-0.92
2023-02-27T01:07:56.713Z,-0.95
2023-02-27T01:10:30.590Z,-0.91
2023-02-27T01:13:07.007Z,-0.83
2023-02-27T01:15:50.620Z,-0.79
2023-02-27T01:18:26.673Z,-0.78
2023-02-27T01:21:07.304Z,-0.72
2023-02-27T01:23:44.139Z,-0.69
2023-02-27T01:26:37.885Z,-0.68
2023-02-27T01:29:10.985Z,-0.66
2023-02-27T01:31:53.289Z,-0.65
2023-02-27T01:34:27.301Z,-0.65
2023-02-27T01:37:15.530Z,-0.69
2023-02-27T01:39:56.382Z,-0.72
2023-02-27T01:42:42.888Z,-0.73
2023-02-27T01:45:35.370Z,-0.74
2023-02-27T01:48:26.769Z,-0.76
2023-02-27T01:51:06.431Z,-0.77
2023-02-27T01:53:56.369Z,-0.81
2023-02-27T01:56:36.274Z,-0.74
2023-02-27T01:59:20.262Z,-0.70
2023-02-27T02:01:56.809Z,-0.69
2023-02-27T02:04:34.209Z,-0.66
2023-02-27T02:07:29.784Z,-0.70
2023-02-27T02:10:18.043Z,-0.70
2023-02-27T02:12:52.275Z,-0.74
2023-02-27T02:15:38.352Z,-0.69
2023-02-27T02:18:29.319Z,-0.63
2023-02-27T02:21:42.453Z,-0.62
2023-02-27T02:24:46.464Z,-0.68
2023-02-27T02:27:44.546Z,-0.71
2023-02-27T02:30:58.436Z,-0.74
2023-02-27T02:34:20.004Z,-0.73
2023-02-27T02:37:41.094Z,-0.70
2023-02-27T02:40:41.055Z,-0.73
2023-02-27T02:43:29.248Z,-0.81
2023-02-27T02:46:11.448Z,-0.78
2023-02-27T02:48:59.863Z,-0.74
2023-02-27T02:51:46.519Z,-0.72
2023-02-27T02:54:31.627Z,-0.70
2023-02-27T02:57:12.013Z,-0.66
2023-02-27T03:00:00.054Z,-0.59
2023-02-27T03:02:39.936Z,-0.58
2023-02-27T03:05:22.049Z,-0.58
2023-02-27T03:08:04.763Z,-0.57
2023-02-27T03:10:45.490Z,-0.52
2023-02-27T03:13:36.448Z,-0.47
2023-02-27T03:16:25.723Z,-0.46
2023-02-27T03:19:08.613Z,-0.47
2023-02-27T03:21:46.028Z,-0.45
2023-02-27T03:24:27.172Z,-0.45
2023-02-27T03:27:05.311Z,-0.41
2023-02-27T03:29:46.194Z,-0.39
2023-02-27T03:32:24.220Z,-0.34
2023-02-27T03:35:00.477Z,-0.31
2023-02-27T03:37:47.571Z,-0.29
2023-02-27T03:40:31.603Z,-0.32
2023-02-27T03:43:23.116Z,-0.37
2023-02-27T03:46:10.771Z,-0.42
2023-02-27T03:48:47.589Z,-0.45
2023-02-27T03:51:27.373Z,-0.45
2023-02-27T03:54:08.566Z,-0.47
2023-02-27T03:56:47.284Z,-0.49
2023-02-27T03:59:22.590Z,-0.50
2023-02-27T04:02:07.088Z,-0.51
2023-02-27T04:04:41.225Z,-0.48
2023-02-27T04:07:48.501Z,-0.47
2023-02-27T04:10:58.008Z,-0.47
2023-02-27T04:13:45.304Z,-0.49
2023-02-27T04:16:52.369Z,-0.48
2023-02-27T04:20:00.000Z,-0.48
2023-02-27T04:22:40.172Z,-0.50
2023-02-27T04:25:34.542Z,-0.47
2023-02-27T04:28:37.385Z,-0.45
2023-02-27T04:31:22.269Z,-0.41
2023-02-27T04:34:04.553Z,-0.39
2023-02-27T04:36:43.708Z,-0.36
2023-02-27T04:39:24.700Z,-0.42
2023-02-27T04:42:06.025Z,-0.40
2023-02-27T04:44:44.324Z,-0.35
2023-02-27T04:47:21.741Z,-0.29
2023-02-27T04:49:57.996Z,-0.23
2023-02-27T04:52:42.524Z,-0.21
2023-02-27T04:55:22.169Z,-0.18
2023-02-27T04:58:06.177Z,-0.18
2023-02-27T05:00:52.744Z,-0.16
2023-02-27T05:03:35.486Z,-0.15
2023-02-27T05:06:20.790Z,-0.15
2023-02-27T05:09:07.992Z,-0.18
2023-02-27T05:11:51.878Z,-0.21
2023-02-27T05:14:34.538Z,-0.16
2023-02-27T05:17:12.704Z,-0.14
2023-02-27T05:19:50.465Z,-0.10
2023-02-27T05:22:35.252Z,-0.07
2023-02-27T05:25:13.813Z,-0.08
2023-02-27T05:27:52.081Z,-0.12
2023-02-27T05:30:37.095Z,-0.12
2023-02-27T05:33:20.537Z,-0.12
2023-02-27T05:36:13.522Z,-0.13
2023-02-27T05:38:56.596Z,-0.12
2023-02-27T05:41:39.485Z,-0.11
2023-02-27T05:44:30.172Z,-0.03
2023-02-27T05:47:18.522Z,-0.02
2023-02-27T05:49:57.131Z,-0.06
2023-02-27T05:52:34.780Z,-0.07
2023-02-27T05:55:18.809Z,-0.06
2023-02-27T05:57:57.527Z,-0.01
2023-02-27T06:00:45.186Z,0.08
2023-02-27T06:03:34.555Z,0.14
2023-02-27T06:06:23.516Z,0.10
2023-02-27T06:08:58.923Z,0.07
2023-02-27T06:11:41.438Z,0.12
2023-02-27T06:14:18.481Z,0.18
2023-02-27T06:16:58.747Z,0.24
2023-02-27T06:19:36.630Z,0.28
2023-02-27T06:22:10.094Z,0.33
2023-02-27T06:24:48.422Z,0.37
2023-02-27T06:27:26.382Z,0.36
2023-02-27T06:29:59.614Z,0.38
2023-02-27T06:32:35.955Z,0.40
2023-02-27T06:35:14.959Z,0.44
2023-02-27T06:37:54.977Z,0.50
2023-02-27T06:40:36.121Z,0.54
2023-02-27T06:43:08.717Z,0.56
2023-02-27T06:46:08.670Z,0.52
2023-02-27T06:48:43.268Z,0.49
2023-02-27T06:51:25.064Z,0.52
2023-02-27T06:53:58.140Z,0.56
2023-02-27T06:56:31.132Z,0.55
2023-02-27T06:59:05.495Z,0.51
2023-02-27T07:01:41.479Z,0.51
2023-02-27T07:04:26.747Z,0.56
2023-02-27T07:07:33.939Z,0.59
2023-02-27T07:09:57.105Z,0.59
2023-02-27T07:12:36.218Z,0.64
2023-02-27T07:15:17.645Z,0.67
2023-02-27T07:17:51.322Z,0.67
2023-02-27T07:20:27.876Z,0.67
2023-02-27T07:23:04.039Z,0.69
2023-02-27T07:25:46.281Z,0.80
2023-02-27T07:28:23.107Z,0.85
2023-02-27T07:30:58.121Z,0.84
2023-02-27T07:33:37.190Z,0.90
2023-02-27T07:36:16.270Z,1.01
2023-02-27T07:38:53.508Z,1.09
2023-02-27T07:41:31.148Z,1.14
2023-02-27T07:44:13.426Z,1.14
2023-02-27T07:46:48.367Z,1.19
2023-02-27T07:49:30.440Z,1.22
2023-02-27T07:52:10.795Z,1.27
2023-02-27T07:54:46.951Z,1.29
2023-02-27T07:57:22.301Z,1.31
2023-02-27T07:59:55.343Z,1.32
2023-02-27T08:02:29.666Z,1.38
2023-02-27T08:05:07.363Z,1.44
2023-02-27T08:07:41.188Z,1.46
2023-02-27T08:10:28.876Z,1.45
2023-02-27T08:13:09.088Z,1.44
2023-02-27T08:15:47.585Z,1.37
2023-02-27T08:18:24.117Z,1.35
2023-02-27T08:21:00.873Z,1.38
2023-02-27T08:23:38.575Z,1.44
2023-02-27T08:26:15.163Z,1.49
2023-02-27T08:28:47.342Z,1.54
2023-02-27T08:31:20.798Z,1.54
2023-02-27T08:34:07.786Z,1.65
2023-02-27T08:36:47.117Z,1.68
2023-02-27T08:39:24.783Z,1.70
2023-02-27T08:41:58.350Z,1.74
2023-02-27T08:44:32.976Z,1.83
2023-02-27T08:47:08.075Z,1.84
2023-02-27T08:49:49.756Z,1.89
2023-02-27T08:52:23.455Z,1.97
2023-02-27T08:54:58.465Z,1.96
2023-02-27T08:57:43.466Z,1.91
2023-02-27T09:00:26.328Z,1.91
2023-02-27T09:03:03.991Z,1.96
2023-02-27T09:05:39.013Z,1.99
2023-02-27T09:08:14.932Z,2.01
2023-02-27T09:10:53.494Z,2.05
2023-02-27T09:13:32.602Z,2.13
2023-02-27T09:16:05.209Z,2.21
2023-02-27T09:18:38.654Z,2.28
2023-02-27T09:21:13.362Z,2.31
2023-02-27T09:23:58.055Z,2.33
2023-02-27T09:26:44.994Z,2.41
2023-02-27T09:29:27.863Z,2.49
2023-02-27T09:31:59.844Z,2.52
2023-02-27T09:34:32.178Z,2.57
2023-02-27T09:37:08.926Z,2.59
2023-02-27T09:39:46.413Z,2.61
2023-02-27T09:42:27.123Z,2.68
2023-02-27T09:45:05.740Z,2.78
2023-02-27T09:47:51.603Z,2.82
2023-02-27T09:51:04.471Z,2.85
2023-02-27T09:53:45.750Z,2.91
2023-02-27T09:56:27.740Z,2.97
2023-02-27T09:59:11.865Z,2.94
2023-02-27T10:01:50.720Z,2.96
2023-02-27T10:04:43.394Z,2.97
2023-02-27T10:07:23.395Z,2.93
2023-02-27T10:10:10.003Z,2.91
2023-02-27T10:13:08.347Z,2.94
2023-02-27T10:15:45.795Z,2.99
2023-02-27T10:18:31.192Z,2.98
2023-02-27T10:21:16.073Z,2.99
2023-02-27T10:23:57.513Z,3.05
2023-02-27T10:26:34.644Z,3.04
2023-02-27T10:29:18.586Z,3.13
2023-02-27T10:32:00.310Z,3.17
2023-02-27T10:34:35.434Z,3.15
2023-02-27T10:37:19.601Z,3.23
2023-02-27T10:40:01.964Z,3.26
2023-02-27T10:42:43.322Z,3.31
2023-02-27T10:45:30.074Z,3.36
2023-02-27T10:48:06.706Z,3.37
2023-02-27T10:50:50.618Z,3.44
2023-02-27T10:53:41.942Z,3.38
2023-02-27T10:56:25.128Z,3.29
2023-02-27T10:59:08.815Z,3.26
2023-02-27T11:01:55.432Z,3.26
2023-02-27T11:04:33.992Z,3.23
2023-02-27T11:07:13.917Z,3.23
2023-02-27T11:10:02.859Z,3.25
2023-02-27T11:12:39.752Z,3.25
2023-02-27T11:15:29.193Z,3.24
2023-02-27T11:18:26.863Z,3.19
2023-02-27T11:21:20.464Z,3.16
2023-02-27T11:24:00.792Z,3.14
2023-02-27T11:26:39.364Z,3.16
2023-02-27T11:29:19.305Z,3.14
2023-02-27T11:32:01.456Z,3.15
2023-02-27T11:34:37.387Z,3.07
2023-02-27T11:37:29.388Z,3.07
2023-02-27T11:40:21.087Z,3.12
2023-02-27T11:42:58.533Z,3.14
2023-02-27T11:46:12.169Z,3.26
2023-02-27T11:48:31.909Z,3.37
2023-02-27T11:51:30.768Z,3.42
2023-02-27T11:54:21.776Z,3.47
2023-02-27T11:56:58.242Z,3.50
2023-02-27T11:59:47.308Z,3.58
2023-02-27T12:02:29.236Z,3.65
2023-02-27T12:05:08.946Z,3.65
2023-02-27T12:07:52.718Z,3.67
2023-02-27T12:11:20.643Z,3.71
2023-02-27T12:14:41.241Z,3.67
2023-02-27T12:17:41.389Z,3.64
2023-02-27T12:20:41.413Z,3.60
2023-02-27T12:23:40.930Z,3.64
2023-02-27T12:26:47.907Z,3.68
2023-02-27T12:29:36.762Z,3.65
2023-02-27T12:32:19.268Z,3.63
2023-02-27T12:35:05.576Z,3.64
2023-02-27T12:37:50.863Z,3.64
2023-02-27T12:40:32.843Z,3.64
2023-02-27T12:43:25.200Z,3.70
2023-02-27T12:46:38.034Z,3.68
2023-02-27T12:49:25.755Z,3.61
2023-02-27T12:52:14.123Z,3.54
2023-02-27T12:55:03.984Z,3.51
2023-02-27T12:58:08.430Z,3.50
2023-02-27T13:00:46.642Z,3.45
2023-02-27T13:03:28.513Z,3.42
2023-02-27T13:06:08.669Z,3.43
2023-02-27T13:09:11.055Z,3.41
2023-02-27T13:11:53.537Z,3.34
2023-02-27T13:14:47.008Z,3.30
2023-02-27T13:17:36.100Z,3.33
2023-02-27T13:20:27.349Z,3.41
2023-02-27T13:23:24.683Z,3.55
2023-02-27T13:26:18.602Z,3.63
2023-02-27T13:28:55.818Z,3.66
2023-02-27T13:31:37.072Z,3.68
2023-02-27T13:34:26.428Z,3.70
2023-02-27T13:37:08.794Z,3.73
2023-02-27T13:40:02.082Z,3.77
2023-02-27T13:42:54.471Z,3.79
2023-02-27T13:45:57.149Z,3.86
2023-02-27T13:48:55.990Z,3.88
2023-02-27T13:51:53.000Z,3.80
2023-02-27T13:54:27.671Z,3.68
2023-02-27T13:57:34.300Z,3.66
2023-02-27T14:00:20.845Z,3.60
2023-02-27T14:03:00.241Z,3.54
2023-02-27T14:05:37.143Z,3.46
2023-02-27T14:08:15.812Z,3.49
2023-02-27T14:10:59.972Z,3.50
2023-02-27T14:14:04.889Z,3.49
2023-02-27T14:16:58.594Z,3.46
2023-02-27T14:19:52.272Z,3.46
2023-02-27T14:22:39.910Z,3.45
2023-02-27T14:25:46.850Z,3.49
2023-02-27T14:28:30.206Z,3.51
2023-02-27T14:31:03.957Z,3.51
2023-02-27T14:33:42.055Z,3.60
2023-02-27T14:36:23.445Z,3.66
2023-02-27T14:38:58.013Z,3.64
2023-02-27T14:41:42.136Z,3.58
2023-02-27T14:44:21.104Z,3.56
2023-02-27T14:46:54.498Z,3.43
2023-02-27T14:49:30.665Z,3.43
2023-02-27T14:52:20.843Z,3.42
2023-02-27T14:54:54.251Z,3.39
2023-02-27T14:57:28.259Z,3.38
2023-02-27T15:00:00.350Z,3.38
2023-02-27T15:02:36.728Z,3.35
2023-02-27T15:05:24.784Z,3.31
2023-02-27T15:07:57.168Z,3.31
2023-02-27T15:10:32.517Z,3.35
2023-02-27T15:13:06.508Z,3.39
2023-02-27T15:15:37.901Z,3.39
2023-02-27T15:18:15.037Z,3.35
2023-02-27T15:20:48.047Z,3.30
2023-02-27T15:23:34.381Z,3.25
2023-02-27T15:26:14.085Z,3.22
2023-02-27T15:28:49.307Z,3.18
2023-02-27T15:31:26.861Z,3.17
2023-02-27T15:33:58.827Z,3.16
2023-02-27T15:36:35.369Z,3.18
2023-02-27T15:39:19.350Z,3.18
2023-02-27T15:41:54.227Z,3.12
2023-02-27T15:44:31.909Z,3.03
2023-02-27T15:47:03.752Z,2.97
2023-02-27T15:49:38.112Z,2.94
2023-02-27T15:52:20.251Z,2.90
2023-02-27T15:54:54.990Z,2.86
2023-02-27T15:57:34.286Z,2.83
2023-02-27T16:00:10.848Z,2.76
2023-02-27T16:02:50.172Z,2.71
2023-02-27T16:05:24.454Z,2.66
2023-02-27T16:07:57.619Z,2.65
2023-02-27T16:10:35.756Z,2.63
2023-02-27T16:13:32.442Z,2.57
2023-02-27T16:16:06.129Z,2.49
2023-02-27T16:18:45.112Z,2.43
2023-02-27T16:21:17.976Z,2.36
2023-02-27T16:23:51.296Z,2.37
2023-02-27T16:26:31.520Z,2.37
2023-02-27T16:29:05.308Z,2.36
2023-02-27T16:31:39.041Z,2.29
2023-02-27T16:34:26.094Z,2.25
2023-02-27T16:37:01.545Z,2.23
2023-02-27T16:39:34.772Z,2.21
2023-02-27T16:42:06.959Z,2.17
2023-02-27T16:44:38.248Z,2.13
2023-02-27T16:47:08.459Z,2.12
2023-02-27T16:49:41.097Z,2.13
2023-02-27T16:52:13.847Z,2.11
2023-02-27T16:54:47.614Z,2.10
2023-02-27T16:57:25.704Z,2.07
2023-02-27T16:59:59.063Z,2.04
2023-02-27T17:02:32.596Z,1.97
2023-02-27T17:05:06.313Z,1.95
2023-02-27T17:07:38.081Z,1.97
2023-02-27T17:10:28.619Z,1.94
2023-02-27T17:13:00.200Z,1.91
2023-02-27T17:15:39.223Z,1.87
2023-02-27T17:18:11.120Z,1.83
2023-02-27T17:20:42.715Z,1.80
2023-02-27T17:23:15.556Z,1.77
2023-02-27T17:25:47.437Z,1.71
2023-02-27T17:28:19.466Z,1.69
2023-02-27T17:30:51.758Z,1.67
2023-02-27T17:33:23.736Z,1.69
2023-02-27T17:36:02.671Z,1.69
2023-02-27T17:38:34.122Z,1.64
2023-02-27T17:41:11.346Z,1.57
2023-02-27T17:43:43.317Z,1.51
2023-02-27T17:46:15.607Z,1.50
2023-02-27T17:48:47.492Z,1.46
2023-02-27T17:51:20.806Z,1.41
2023-02-27T17:53:54.158Z,1.39
2023-02-27T17:56:26.244Z,1.39
2023-02-27T17:58:58.601Z,1.32
2023-02-27T18:01:30.260Z,1.23
2023-02-27T18:04:02.856Z,1.14
2023-02-27T18:06:35.237Z,1.07
2023-02-27T18:09:06.204Z,1.08
2023-02-27T18:11:40.524Z,1.08
2023-02-27T18:14:11.611Z,1.07
2023-02-27T18:16:42.392Z,1.05
2023-02-27T18:19:15.152Z,1.04
2023-02-27T18:21:48.307Z,1.01
2023-02-27T18:24:20.252Z,0.97
2023-02-27T18:26:51.228Z,0.93
2023-02-27T18:29:22.403Z,0.89
2023-02-27T18:31:55.197Z,0.85
2023-02-27T18:34:26.868Z,0.81
2023-02-27T18:36:58.383Z,0.71
2023-02-27T18:39:31.212Z,0.60
2023-02-27T18:42:06.725Z,0.57
2023-02-27T18:44:42.597Z,0.57
2023-02-27T18:47:15.184Z,0.55
2023-02-27T18:49:47.298Z,0.49
2023-02-27T18:52:19.639Z,0.36
2023-02-27T18:54:50.433Z,0.23
2023-02-27T18:57:21.813Z,0.19
2023-02-27T18:59:54.373Z,0.19
2023-02-27T19:02:26.142Z,0.14
2023-02-27T19:04:57.733Z,0.15
2023-02-27T19:07:31.263Z,0.13
2023-02-27T19:10:04.749Z,0.11
2023-02-27T19:12:36.766Z,0.10
2023-02-27T19:15:09.017Z,0.08
2023-02-27T19:17:41.514Z,-0.02
2023-02-27T19:20:18.735Z,-0.13
2023-02-27T19:22:49.953Z,-0.13
2023-02-27T19:25:21.723Z,-0.17
2023-02-27T19:27:56.367Z,-0.13
2023-02-27T19:30:27.492Z,-0.12
2023-02-27T19:32:59.244Z,-0.12
2023-02-27T19:35:32.223Z,-0.17
2023-02-27T19:38:04.642Z,-0.24
2023-02-27T19:40:38.564Z,-0.30
2023-02-27T19:43:10.389Z,-0.34
2023-02-27T19:45:42.566Z,-0.36
2023-02-27T19:48:18.423Z,-0.35
2023-02-27T19:50:50.742Z,-0.37
2023-02-27T19:53:22.008Z,-0.36
2023-02-27T19:56:02.470Z,-0.37
2023-02-27T19:58:37.216Z,-0.40
2023-02-27T20:01:10.506Z,-0.44
2023-02-27T20:03:43.796Z,-0.39
2023-02-27T20:06:20.869Z,-0.35
2023-02-27T20:08:53.492Z,-0.33
2023-02-27T20:11:29.885Z,-0.34
2023-02-27T20:14:02.296Z,-0.39
2023-02-27T20:16:35.230Z,-0.37
2023-02-27T20:19:09.790Z,-0.38
2023-02-27T20:21:43.591Z,-0.45
2023-02-27T20:24:18.393Z,-0.55
2023-02-27T20:26:52.561Z,-0.65
2023-02-27T20:29:26.727Z,-0.68
2023-02-27T20:31:59.117Z,-0.69
2023-02-27T20:34:31.398Z,-0.73
2023-02-27T20:37:03.603Z,-0.74
2023-02-27T20:39:34.762Z,-0.71
2023-02-27T20:42:07.884Z,-0.73
2023-02-27T20:44:40.137Z,-0.69
2023-02-27T20:47:13.105Z,-0.66
2023-02-27T20:49:44.605Z,-0.63
2023-02-27T20:52:17.342Z,-0.60
2023-02-27T20:54:48.480Z,-0.56
2023-02-27T20:57:21.270Z,-0.62
2023-02-27T20:59:53.764Z,-0.69
2023-02-27T21:02:25.535Z,-0.72
2023-02-27T21:04:57.930Z,-0.74
2023-02-27T21:07:29.534Z,-0.71
2023-02-27T21:10:01.820Z,-0.72
2023-02-27T21:12:34.897Z,-0.76
2023-02-27T21:15:12.961Z,-0.77
2023-02-27T21:17:46.678Z,-0.78
2023-02-27T21:20:18.570Z,-0.81
2023-02-27T21:22:50.827Z,-0.85
2023-02-27T21:25:24.975Z,-0.89
2023-02-27T21:28:02.446Z,-0.96
2023-02-27T21:30:36.857Z,-1.04
2023-02-27T21:33:08.151Z,-1.05
2023-02-27T21:35:44.950Z,-1.01
2023-02-27T21:38:17.955Z,-0.99
2023-02-27T21:40:49.718Z,-1.02
2023-02-27T21:43:22.474Z,-0.99
2023-02-27T21:45:57.070Z,-0.99
2023-02-27T21:48:28.634Z,-1.00
2023-02-27T21:51:02.469Z,-1.01
2023-02-27T21:53:36.579Z,-1.04
2023-02-27T21:56:10.203Z,-1.06
2023-02-27T21:58:42.590Z,-1.08
2023-02-27T22:01:16.311Z,-1.07
2023-02-27T22:03:50.357Z,-1.08
2023-02-27T22:06:23.348Z,-1.06
2023-02-27T22:08:58.046Z,-1.01
2023-02-27T22:11:29.986Z,-1.00
2023-02-27T22:14:04.045Z,-1.05
2023-02-27T22:16:37.599Z,-1.01
2023-02-27T22:19:15.151Z,-0.97
2023-02-27T22:21:50.178Z,-0.93
2023-02-27T22:24:21.392Z,-0.92
2023-02-27T22:26:52.880Z,-0.88
2023-02-27T22:29:25.004Z,-0.86
2023-02-27T22:31:56.185Z,-0.85
2023-02-27T22:34:28.101Z,-0.83
2023-02-27T22:36:59.432Z,-0.81
2023-02-27T22:39:31.721Z,-0.82
2023-02-27T22:42:04.404Z,-0.83
2023-02-27T22:44:35.937Z,-0.83
2023-02-27T22:47:07.901Z,-0.84
2023-02-27T22:49:39.556Z,-0.84
2023-02-27T22:52:10.699Z,-0.84
2023-02-27T22:54:43.010Z,-0.85
2023-02-27T22:57:15.401Z,-0.85
2023-02-27T22:59:47.618Z,-0.86
2023-02-27T23:02:21.222Z,-0.87
2023-02-27T23:04:52.768Z,-0.90
2023-02-27T23:07:26.511Z,-0.93
2023-02-27T23:09:59.739Z,-0.95
2023-02-27T23:12:32.942Z,-0.97
2023-02-27T23:15:06.225Z,-0.97
2023-02-27T23:17:52.053Z,-1.00
2023-02-27T23:20:28.533Z,-1.04
2023-02-27T23:23:00.557Z,-1.05
2023-02-27T23:25:32.551Z,-1.07
2023-02-27T23:28:05.329Z,-1.09
2023-02-27T23:30:37.703Z,-1.09
2023-02-27T23:33:12.060Z,-1.11
2023-02-27T23:35:44.024Z,-1.12
2023-02-27T23:38:17.939Z,-1.13
2023-02-27T23:40:49.589Z,-1.15
2023-02-27T23:43:24.242Z,-1.17
2023-02-27T23:45:57.869Z,-1.22
2023-02-27T23:48:33.955Z,-1.23
2023-02-27T23:51:10.217Z,-1.24
2023-02-27T23:53:42.721Z,-1.26
2023-02-27T23:56:18.392Z,-1.29
2023-02-27T23:58:55.959Z,-1.32
